Time;durP1;ratioP1;P1;durP2;ratioP2;P2;SDS_P1;SDS_P2;PMS_P1;PMS_P2;Temp;Humidity;BMP_temperature;BMP_pressure;BME280_temperature;BME280_humidity;BME280_pressure;Samples;Min_cycle;Max_cycle;Signal;HPM_P1;HPM_P2
2022/10/30 00:01:54;;;;;;;;;;;;;;;-144.99;100.00;52401.22;5074341;28;20227;-68
2022/10/30 00:04:21;;;;;;;;;;;;;;;-144.99;100.00;52362.50;5068178;28;19946;-69
2022/10/30 00:06:48;;;;;;;;;;;;;;;-144.99;100.00;52388.97;5068133;28;19949;-69
2022/10/30 00:09:15;;;;;;;;;;;;;;;-144.99;100.00;52391.03;5073760;28;20454;-69
2022/10/30 00:11:41;;;;;;;;;;;;;;;-144.99;100.00;52362.50;5073294;28;19959;-70
2022/10/30 00:14:08;;;;;;;;;;;;;;;-144.99;100.00;52448.09;5077203;28;19962;-70
2022/10/30 00:16:36;;;;;;;;;;;;;;;-144.99;100.00;52384.91;5084579;28;20310;-69
2022/10/30 00:19:02;;;;;;;;;;;;;;;-144.99;100.00;52370.63;5074401;28;19941;-68
2022/10/30 00:21:28;;;;;;;;;;;;;;;-144.99;100.00;52382.88;5076432;28;19955;-68
2022/10/30 00:23:55;;;;;;;;;;;;;;;-144.99;100.00;52366.56;5082688;28;19946;-68
2022/10/30 00:26:22;;;;;;;;;;;;;;;-144.99;100.00;52435.88;5087646;28;19944;-68
2022/10/30 00:28:52;;;;;;;;;;;;;;;-144.99;100.00;52391.03;5076286;28;19957;-68
2022/10/30 00:31:19;;;;;;;;;;;;;;;-144.99;100.00;52421.59;5078609;28;19966;-66
2022/10/30 00:33:50;;;;;;;;;;;;;;;-144.99;100.00;52370.63;5069956;28;19943;-67
2022/10/30 00:36:16;;;;;;;;;;;;;;;-144.99;100.00;52393.06;5068599;28;19936;-67
2022/10/30 00:38:43;;;;;;;;;;;;;;;-144.99;100.00;52441.97;5067109;28;20296;-69
2022/10/30 00:41:13;;;;;;;;;;;;;;;-144.99;100.00;52413.44;5075477;28;19951;-68
2022/10/30 00:43:40;;;;;;;;;;;;;;;-144.99;100.00;52407.31;5080729;28;19938;-70
2022/10/30 00:46:12;;;;;;;;;;;;;;;-144.99;100.00;52382.88;5080230;28;19947;-69
2022/10/30 00:48:38;;;;;;;;;;;;;;;-144.99;100.00;52435.88;5078434;28;19962;-70
2022/10/30 00:51:08;;;;;;;;;;;;;;;-144.99;100.00;52386.94;5079369;28;19963;-70
2022/10/30 00:53:35;;;;;;;;;;;;;;;-144.99;100.00;52380.84;5067041;28;20614;-73
2022/10/30 00:56:03;;;;;;;;;;;;;;;-144.99;100.00;52354.34;5079836;28;19946;-73
2022/10/30 00:58:31;;;;;;;;;;;;;;;-144.99;100.00;52378.78;5087519;28;19935;-73
2022/10/30 01:01:00;;;;;;;;;;;;;;;-144.99;100.00;52395.09;5077489;28;19959;-71
2022/10/30 01:03:27;;;;;;;;;;;;;;;-144.99;100.00;52419.56;5067056;28;19928;-71
2022/10/30 01:05:57;;;;;;;;;;;;;;;-144.99;100.00;52431.78;5078938;28;19947;-70
2022/10/30 01:08:24;;;;;;;;;;;;;;;-144.99;100.00;52388.97;5065867;28;19971;-71
2022/10/30 01:10:51;;;;;;;;;;;;;;;-144.99;100.00;52378.78;5071954;28;19960;-71
2022/10/30 01:13:20;;;;;;;;;;;;;;;-144.99;100.00;52378.78;5076030;28;19961;-70
2022/10/30 01:15:53;;;;;;;;;;;;;;;-144.99;100.00;52391.03;5067684;28;19988;-71
2022/10/30 01:18:29;;;;;;;;;;;;;;;-144.99;100.00;52376.75;5067002;28;19946;-71
2022/10/30 01:21:06;;;;;;;;;;;;;;;-144.99;100.00;52437.91;5065945;28;19955;-71
2022/10/30 01:23:39;;;;;;;;;;;;;;;-144.99;100.00;52391.03;5067026;28;20098;-71
2022/10/30 01:26:11;;;;;;;;;;;;;;;-144.99;100.00;52382.88;5054257;28;19954;-70
2022/10/30 01:28:49;;;;;;;;;;;;;;;-144.99;100.00;52403.25;5067284;28;19967;-71
2022/10/30 01:31:22;;;;;;;;;;;;;;;-144.99;100.00;52399.19;5067708;28;20061;-71
2022/10/30 01:33:59;;;;;;;;;;;;;;;-144.99;100.00;52399.19;5076977;28;19942;-71
2022/10/30 01:36:29;;;;;;;;;;;;;;;-144.99;100.00;52415.47;5075012;28;20414;-71
2022/10/30 01:38:58;;;;;;;;;;;;;;;-144.99;100.00;52399.19;5075164;28;19950;-73
2022/10/30 01:41:24;;;;;;;;;;;;;;;-144.99;100.00;52411.41;5086683;28;19952;-74
2022/10/30 01:43:54;;;;;;;;;;;;;;;-144.99;100.00;52407.31;5099639;28;19934;-73
2022/10/30 01:46:34;;;;;;;;;;;;;;;-144.99;100.00;52409.38;5092385;28;19932;-73
2022/10/30 01:49:18;;;;;;;;;;;;;;;-144.99;100.00;52388.97;5078717;28;19962;-73
2022/10/30 01:51:54;;;;;;;;;;;;;;;-144.99;100.00;52423.63;5071986;28;20046;-75
2022/10/30 01:54:28;;;;;;;;;;;;;;;-144.99;100.00;52354.34;5090297;28;19944;-75
2022/10/30 01:56:59;;;;;;;;;;;;;;;-144.99;100.00;52401.22;5096803;28;20338;-77
2022/10/30 01:59:29;;;;;;;;;;;;;;;-144.99;100.00;52376.75;5097677;28;19973;-74
2022/10/30 02:01:55;;;;;;;;;;;;;;;-144.99;100.00;52403.25;5078483;28;19986;-76
2022/10/30 02:04:22;;;;;;;;;;;;;;;-144.99;100.00;52415.47;5089115;28;20013;-75
2022/10/30 02:06:49;;;;;;;;;;;;;;;-144.99;100.00;52399.19;5068207;28;19946;-69
2022/10/30 02:09:16;;;;;;;;;;;;;;;-144.99;100.00;52382.88;5070366;28;19970;-69
2022/10/30 02:11:45;;;;;;;;;;;;;;;-144.99;100.00;52415.47;5069475;28;20458;-69
2022/10/30 02:14:12;;;;;;;;;;;;;;;-144.99;100.00;52413.44;5077501;28;19939;-72
2022/10/30 02:16:42;;;;;;;;;;;;;;;-144.99;100.00;52411.41;5076886;28;19936;-74
2022/10/30 02:19:09;;;;;;;;;;;;;;;-144.99;100.00;52415.47;5078896;28;19950;-75
2022/10/30 02:21:36;;;;;;;;;;;;;;;-144.99;100.00;52395.09;5088922;28;19959;-72
2022/10/30 02:24:03;;;;;;;;;;;;;;;-144.99;100.00;52435.88;5080448;28;19928;-74
2022/10/30 02:26:29;;;;;;;;;;;;;;;-144.99;100.00;52397.13;5080970;28;19928;-73
2022/10/30 02:28:55;;;;;;;;;;;;;;;-144.99;100.00;52429.75;5074589;28;20448;-73
2022/10/30 02:31:22;;;;;;;;;;;;;;;-144.99;100.00;52429.75;5080522;28;19963;-73
2022/10/30 02:33:49;;;;;;;;;;;;;;;-144.99;100.00;52403.25;5071718;28;19943;-72
2022/10/30 02:36:15;;;;;;;;;;;;;;;-144.99;100.00;52415.47;5082471;28;19946;-73
2022/10/30 02:38:43;;;;;;;;;;;;;;;-144.99;100.00;52399.19;5074391;28;19953;-73
2022/10/30 02:41:10;;;;;;;;;;;;;;;-144.99;100.00;52386.94;5070445;28;20012;-72
2022/10/30 02:43:36;;;;;;;;;;;;;;;-144.99;100.00;52423.63;5074216;28;19941;-73
2022/10/30 02:46:03;;;;;;;;;;;;;;;-144.99;100.00;52403.25;5074877;28;20139;-73
2022/10/30 02:48:29;;;;;;;;;;;;;;;-144.99;100.00;52407.31;5078599;28;19963;-74
2022/10/30 02:50:58;;;;;;;;;;;;;;;-144.99;100.00;52423.63;5070851;28;19970;-72
2022/10/30 02:53:25;;;;;;;;;;;;;;;-144.99;100.00;52425.66;5071904;28;19938;-73
2022/10/30 02:55:52;;;;;;;;;;;;;;;-144.99;100.00;52431.78;5081751;28;19945;-72
2022/10/30 02:58:19;;;;;;;;;;;;;;;-144.99;100.00;52395.09;5072405;28;19968;-72
2022/10/30 03:00:45;;;;;;;;;;;;;;;-144.99;100.00;52458.28;5069901;28;19978;-71
2022/10/30 03:03:12;;;;;;;;;;;;;;;-144.99;100.00;52419.56;5056601;28;19955;-72
2022/10/30 03:05:38;;;;;;;;;;;;;;;-144.99;100.00;52446.06;5065135;28;19938;-72
2022/10/30 03:08:05;;;;;;;;;;;;;;;-144.99;100.00;52382.88;5080311;28;20167;-72
2022/10/30 03:10:31;;;;;;;;;;;;;;;-144.99;100.00;52419.56;5069651;28;19962;-71
2022/10/30 03:12:59;;;;;;;;;;;;;;;-144.99;100.00;52380.84;5088319;28;19953;-72
2022/10/30 03:15:26;;;;;;;;;;;;;;;-144.99;100.00;52407.31;5078009;28;20335;-72
2022/10/30 03:17:52;;;;;;;;;;;;;;;-144.99;100.00;52439.94;5079118;28;19990;-72
2022/10/30 03:20:18;;;;;;;;;;;;;;;-144.99;100.00;52433.81;5069452;28;19969;-72
2022/10/30 03:22:45;;;;;;;;;;;;;;;-144.99;100.00;52407.31;5073789;28;19941;-72
2022/10/30 03:25:11;;;;;;;;;;;;;;;-144.99;100.00;52395.09;5083348;28;19945;-73
2022/10/30 03:27:38;;;;;;;;;;;;;;;-144.99;100.00;52415.47;5070865;28;19949;-72
2022/10/30 03:30:06;;;;;;;;;;;;;;;-144.99;100.00;52409.38;5069832;28;19970;-71
2022/10/30 03:32:32;;;;;;;;;;;;;;;-144.99;100.00;52419.56;5069874;28;19992;-71
2022/10/30 03:34:59;;;;;;;;;;;;;;;-144.99;100.00;52419.56;5069951;28;19940;-72
2022/10/30 03:37:25;;;;;;;;;;;;;;;-144.99;100.00;52444.03;5070071;28;20440;-75
2022/10/30 03:39:52;;;;;;;;;;;;;;;-144.99;100.00;52423.63;5080580;28;19966;-68
2022/10/30 03:42:18;;;;;;;;;;;;;;;-144.99;100.00;52423.63;5089163;28;19943;-69
2022/10/30 03:44:44;;;;;;;;;;;;;;;-144.99;100.00;52384.91;5085290;28;19961;-70
2022/10/30 03:47:12;;;;;;;;;;;;;;;-144.99;100.00;52444.03;5075457;28;19945;-70
2022/10/30 03:49:38;;;;;;;;;;;;;;;-144.99;100.00;52415.47;5076640;28;19967;-70
2022/10/30 03:52:05;;;;;;;;;;;;;;;-144.99;100.00;52413.44;5072161;28;19949;-70
2022/10/30 03:54:31;;;;;;;;;;;;;;;-144.99;100.00;52464.41;5071439;28;19950;-69
2022/10/30 03:56:58;;;;;;;;;;;;;;;-144.99;100.00;52409.38;5069600;28;20375;-70
2022/10/30 03:59:24;;;;;;;;;;;;;;;-144.99;100.00;52395.09;5101449;22;20340;-63
2022/10/30 04:01:50;;;;;;;;;;;;;;;-144.99;100.00;52411.41;5064205;28;20050;-63
2022/10/30 04:04:18;;;;;;;;;;;;;;;-144.99;100.00;52419.56;5068603;28;19943;-63
2022/10/30 04:06:45;;;;;;;;;;;;;;;-144.99;100.00;52433.81;5075945;28;19946;-67
2022/10/30 04:09:11;;;;;;;;;;;;;;;-144.99;100.00;52435.88;5066616;28;19958;-69
2022/10/30 04:11:37;;;;;;;;;;;;;;;-144.99;100.00;52435.88;5068406;28;20061;-69
2022/10/30 04:14:04;;;;;;;;;;;;;;;-144.99;100.00;52407.31;5068923;28;19939;-68
2022/10/30 04:16:30;;;;;;;;;;;;;;;-144.99;100.00;52439.94;5066096;28;20026;-68
2022/10/30 04:18:57;;;;;;;;;;;;;;;-144.99;100.00;52417.53;5065974;28;19924;-69
2022/10/30 04:21:25;;;;;;;;;;;;;;;-144.99;100.00;52421.59;5068580;28;19958;-69
2022/10/30 04:23:52;;;;;;;;;;;;;;;-144.99;100.00;52417.53;5067514;28;19945;-69
2022/10/30 04:26:19;;;;;;;;;;;;;;;-144.99;100.00;52423.63;5069824;28;19935;-71
2022/10/30 04:28:47;;;;;;;;;;;;;;;-144.99;100.00;52407.31;5072917;28;20037;-69
2022/10/30 04:31:13;;;;;;;;;;;;;;;-144.99;100.00;52411.41;5068302;28;20442;-68
2022/10/30 04:33:40;;;;;;;;;;;;;;;-144.99;100.00;52399.19;5068054;28;19961;-69
2022/10/30 04:36:07;;;;;;;;;;;;;;;-144.99;100.00;52444.03;5069052;28;20008;-71
2022/10/30 04:38:34;;;;;;;;;;;;;;;-144.99;100.00;52399.19;5067133;28;19950;-66
2022/10/30 04:41:01;;;;;;;;;;;;;;;-144.99;100.00;52448.09;5062211;28;19955;-68
2022/10/30 04:43:27;;;;;;;;;;;;;;;-144.99;100.00;52399.19;5067944;28;20333;-68
2022/10/30 04:45:53;;;;;;;;;;;;;;;-144.99;100.00;52435.88;5065694;28;19949;-67
2022/10/30 04:48:20;;;;;;;;;;;;;;;-144.99;100.00;52421.59;5068568;28;19987;-68
2022/10/30 04:50:46;;;;;;;;;;;;;;;-144.99;100.00;52407.31;5068616;28;19959;-69
2022/10/30 04:53:13;;;;;;;;;;;;;;;-144.99;100.00;52417.53;5066657;28;20315;-67
2022/10/30 04:55:41;;;;;;;;;;;;;;;-144.99;100.00;52435.88;5068260;28;19946;-67
2022/10/30 04:58:09;;;;;;;;;;;;;;;-144.99;100.00;52423.63;5071962;28;19944;-67
2022/10/30 05:00:35;;;;;;;;;;;;;;;-144.99;100.00;52427.72;5059848;28;20374;-68
2022/10/30 05:03:02;;;;;;;;;;;;;;;-144.99;100.00;52395.09;5064150;28;19942;-68
2022/10/30 05:05:29;;;;;;;;;;;;;;;-144.99;100.00;52421.59;5070597;28;19944;-71
2022/10/30 05:07:55;;;;;;;;;;;;;;;-144.99;100.00;52439.94;5071505;28;20173;-69
2022/10/30 05:10:22;;;;;;;;;;;;;;;-144.99;100.00;52464.41;5078124;28;19987;-67
2022/10/30 05:12:51;;;;;;;;;;;;;;;-144.99;100.00;52454.22;5074809;28;19955;-67
2022/10/30 05:15:21;;;;;;;;;;;;;;;-144.99;100.00;52419.56;5068559;28;19925;-67
2022/10/30 05:17:50;;;;;;;;;;;;;;;-144.99;100.00;52407.31;5067827;28;19945;-67
2022/10/30 05:20:17;;;;;;;;;;;;;;;-144.99;100.00;52415.47;5064828;28;20250;-62
2022/10/30 05:22:43;;;;;;;;;;;;;;;-144.99;100.00;52374.72;5064339;28;19947;-61
2022/10/30 05:25:10;;;;;;;;;;;;;;;-144.99;100.00;52411.41;5067885;28;19943;-61
2022/10/30 05:27:36;;;;;;;;;;;;;;;-144.99;100.00;52460.31;5067616;28;19953;-60
2022/10/30 05:30:04;;;;;;;;;;;;;;;-144.99;100.00;52431.78;5076737;28;19959;-62
2022/10/30 05:32:30;;;;;;;;;;;;;;;-144.99;100.00;52444.03;5066570;28;20328;-61
2022/10/30 05:34:57;;;;;;;;;;;;;;;-144.99;100.00;52395.09;5061016;28;20205;-60
2022/10/30 05:37:23;;;;;;;;;;;;;;;-144.99;100.00;52444.03;5052365;28;19949;-61
2022/10/30 05:39:50;;;;;;;;;;;;;;;-144.99;100.00;52431.78;5070639;28;20026;-61
2022/10/30 05:42:16;;;;;;;;;;;;;;;-144.99;100.00;52462.34;5059098;28;19942;-61
2022/10/30 05:44:43;;;;;;;;;;;;;;;-144.99;100.00;52437.91;5068154;28;19957;-64
2022/10/30 05:47:12;;;;;;;;;;;;;;;-144.99;100.00;52411.41;5064190;28;20036;-64
2022/10/30 05:49:38;;;;;;;;;;;;;;;-144.99;100.00;52399.19;5073403;28;19959;-64
2022/10/30 05:52:05;;;;;;;;;;;;;;;-144.99;100.00;52464.41;5065154;28;20498;-64
2022/10/30 05:54:31;;;;;;;;;;;;;;;-144.99;100.00;52439.94;5067568;28;19930;-64
2022/10/30 05:56:57;;;;;;;;;;;;;;;-144.99;100.00;52415.47;5067962;28;19982;-68
2022/10/30 05:59:24;;;;;;;;;;;;;;;-144.99;100.00;52448.09;5068179;28;20087;-67
2022/10/30 06:01:50;;;;;;;;;;;;;;;-144.99;100.00;52484.78;5067700;28;19953;-67
2022/10/30 06:04:18;;;;;;;;;;;;;;;-144.99;100.00;52435.88;5063348;28;19945;-68
2022/10/30 06:06:45;;;;;;;;;;;;;;;-144.99;100.00;52448.09;5077111;28;19951;-72
2022/10/30 06:09:11;;;;;;;;;;;;;;;-144.99;100.00;52456.25;5068510;28;19951;-71
2022/10/30 06:11:37;;;;;;;;;;;;;;;-144.99;100.00;52415.47;5083725;28;20011;-73
2022/10/30 06:14:04;;;;;;;;;;;;;;;-144.99;100.00;52423.63;5080273;28;20056;-72
2022/10/30 06:16:30;;;;;;;;;;;;;;;-144.99;100.00;52429.75;5068190;28;19936;-72
2022/10/30 06:18:57;;;;;;;;;;;;;;;-144.99;100.00;52415.47;5067813;28;20336;-71
2022/10/30 06:21:25;;;;;;;;;;;;;;;-144.99;100.00;52435.88;5071230;28;19958;-72
2022/10/30 06:23:51;;;;;;;;;;;;;;;-144.99;100.00;52448.09;5066524;28;19997;-72
2022/10/30 06:26:17;;;;;;;;;;;;;;;-144.99;100.00;52415.47;5068656;28;19955;-70
2022/10/30 06:28:44;;;;;;;;;;;;;;;-144.99;100.00;52407.31;5067326;28;19947;-71
2022/10/30 06:31:10;;;;;;;;;;;;;;;-144.99;100.00;52409.38;5072258;28;20184;-70
2022/10/30 06:33:37;;;;;;;;;;;;;;;-144.99;100.00;52427.72;5064747;28;19956;-71
2022/10/30 06:36:04;;;;;;;;;;;;;;;-144.99;100.00;52452.16;5067776;28;20383;-73
2022/10/30 06:38:31;;;;;;;;;;;;;;;-144.99;100.00;52431.78;5069523;28;19966;-70
2022/10/30 06:40:58;;;;;;;;;;;;;;;-144.99;100.00;52427.72;5069965;28;19954;-67
2022/10/30 06:43:24;;;;;;;;;;;;;;;-144.99;100.00;52472.56;5074453;28;20038;-63
2022/10/30 06:45:51;;;;;;;;;;;;;;;-144.99;100.00;52444.03;5063937;28;19959;-64
2022/10/30 06:48:17;;;;;;;;;;;;;;;-144.99;100.00;52415.47;5069420;28;19945;-63
2022/10/30 06:50:44;;;;;;;;;;;;;;;-144.99;100.00;52407.31;5070652;28;19962;-64
2022/10/30 06:53:10;;;;;;;;;;;;;;;-144.99;100.00;52419.56;5069913;28;19970;-64
2022/10/30 06:55:38;;;;;;;;;;;;;;;-144.99;100.00;52423.63;5070566;28;20069;-63
2022/10/30 06:58:04;;;;;;;;;;;;;;;-144.99;100.00;52444.03;5069947;28;19961;-65
2022/10/30 07:00:31;;;;;;;;;;;;;;;-144.99;100.00;52380.84;5070744;28;19971;-64
2022/10/30 07:02:58;;;;;;;;;;;;;;;-144.99;100.00;52435.88;5074832;28;19944;-64
2022/10/30 07:05:24;;;;;;;;;;;;;;;-144.99;100.00;52460.31;5062153;28;20260;-64
2022/10/30 07:07:51;;;;;;;;;;;;;;;-144.99;100.00;52423.63;5068618;28;19969;-65
2022/10/30 07:10:17;;;;;;;;;;;;;;;-144.99;100.00;52456.25;5069167;28;19965;-65
2022/10/30 07:12:52;;;;;;;;;;;;;;;-144.99;100.00;52411.41;5075012;28;19951;-65
2022/10/30 07:15:18;;;;;;;;;;;;;;;-144.99;100.00;52423.63;5071415;28;19942;-60
2022/10/30 07:17:51;;;;;;;;;;;;;;;-144.99;100.00;52431.78;5068874;28;20445;-64
2022/10/30 07:20:17;;;;;;;;;;;;;;;-144.99;100.00;52439.94;5070527;28;19963;-66
2022/10/30 07:22:44;;;;;;;;;;;;;;;-144.99;100.00;52419.56;5061576;28;19991;-70
2022/10/30 07:25:10;;;;;;;;;;;;;;;-144.99;100.00;52374.72;5067231;28;19951;-70
2022/10/30 07:27:41;;;;;;;;;;;;;;;-144.99;100.00;52393.06;5070904;28;20018;-70
2022/10/30 07:30:10;;;;;;;;;;;;;;;-144.99;100.00;52413.44;5070458;28;19964;-71
2022/10/30 07:32:36;;;;;;;;;;;;;;;-144.99;100.00;52415.47;5072140;28;19978;-68
2022/10/30 07:35:03;;;;;;;;;;;;;;;-144.99;100.00;52427.72;5062121;28;19983;-70
2022/10/30 07:37:29;;;;;;;;;;;;;;;-144.99;100.00;52407.31;5064924;28;19935;-68
2022/10/30 07:39:55;;;;;;;;;;;;;;;-144.99;100.00;52397.13;5070590;28;19959;-69
2022/10/30 07:42:22;;;;;;;;;;;;;;;-144.99;100.00;52391.03;5074371;28;19947;-69
2022/10/30 07:44:48;;;;;;;;;;;;;;;-144.99;100.00;52395.09;5083378;28;19936;-69
2022/10/30 07:47:18;;;;;;;;;;;;;;;-144.99;100.00;52429.75;5064302;28;21645;-69
2022/10/30 07:49:44;;;;;;;;;;;;;;;-144.99;100.00;52378.78;5075752;28;19939;-70
2022/10/30 07:52:11;;;;;;;;;;;;;;;-144.99;100.00;52386.94;5065706;28;19940;-70
2022/10/30 07:54:37;;;;;;;;;;;;;;;-144.99;100.00;52354.34;5069711;28;19935;-69
2022/10/30 07:57:04;;;;;;;;;;;;;;;-144.99;100.00;52407.31;5070073;28;20010;-69
2022/10/30 07:59:30;;;;;;;;;;;;;;;-144.99;100.00;52397.13;5069966;28;19951;-70
2022/10/30 08:01:56;;;;;;;;;;;;;;;-144.99;100.00;52415.47;5067132;28;19958;-69
2022/10/30 08:04:24;;;;;;;;;;;;;;;-144.99;100.00;52386.94;5070299;28;19949;-69
2022/10/30 08:06:51;;;;;;;;;;;;;;;-144.99;100.00;52388.97;5069261;28;20037;-70
2022/10/30 08:09:17;;;;;;;;;;;;;;;-144.99;100.00;52415.47;5069473;28;19946;-70
2022/10/30 08:11:43;;;;;;;;;;;;;;;-144.99;100.00;52407.31;5069246;28;19957;-70
2022/10/30 08:14:10;;;;;;;;;;;;;;;-144.99;100.00;52391.03;5071624;28;19947;-70
2022/10/30 08:16:36;;;;;;;;;;;;;;;-144.99;100.00;52427.72;5071614;28;19935;-69
2022/10/30 08:19:03;;;;;;;;;;;;;;;-144.99;100.00;52391.03;5071221;28;20448;-70
2022/10/30 08:21:31;;;;;;;;;;;;;;;-144.99;100.00;52441.97;5065002;28;20051;-70
2022/10/30 08:23:57;;;;;;;;;;;;;;;-144.99;100.00;52370.63;5060189;28;20397;-70
2022/10/30 08:26:23;;;;;;;;;;;;;;;-144.99;100.00;52386.94;5063131;28;19936;-71
2022/10/30 08:28:50;;;;;;;;;;;;;;;-144.99;100.00;52399.19;5065730;28;19947;-72
2022/10/30 08:31:16;;;;;;;;;;;;;;;-144.99;100.00;52354.34;5066079;28;19959;-70
2022/10/30 08:33:43;;;;;;;;;;;;;;;-144.99;97.31;52378.78;5060104;28;20027;-72
2022/10/30 08:36:09;;;;;;;;;;;;;;;-144.99;97.43;52315.59;5069641;28;19946;-71
2022/10/30 08:38:37;;;;;;;;;;;;;;;-144.99;94.83;52370.63;5057912;28;19947;-70
2022/10/30 08:41:03;;;;;;;;;;;;;;;-144.99;93.60;52303.38;5068245;28;20452;-69
2022/10/30 08:43:30;;;;;;;;;;;;;;;-144.99;89.68;52317.66;5063786;28;19937;-72
2022/10/30 08:45:57;;;;;;;;;;;;;;;-144.99;87.11;52329.88;4367910;28;10000726;-71
2022/10/30 08:48:24;;;;;;;;;;;;;;;-144.99;84.19;52297.25;5047282;28;19953;-71
2022/10/30 08:50:50;;;;;;;;;;;;;;;-144.99;84.15;52317.66;5057581;28;19958;-71
2022/10/30 08:53:17;;;;;;;;;;;;;;;-144.99;83.55;52280.97;5063062;28;19948;-69
2022/10/30 08:55:44;;;;;;;;;;;;;;;-144.99;80.95;52313.56;5069906;28;19962;-69
2022/10/30 08:58:11;;;;;;;;;;;;;;;-144.99;79.18;52317.66;5063566;28;19962;-68
2022/10/30 09:00:37;;;;;;;;;;;;;;;-144.99;76.90;52293.19;5053259;28;20428;-69
2022/10/30 09:03:04;;;;;;;;;;;;;;;-144.99;75.44;52342.09;5055074;28;19949;-68
2022/10/30 09:05:30;;;;;;;;;;;;;;;-144.99;73.60;52297.25;5063977;28;19942;-68
2022/10/30 09:07:59;;;;;;;;;;;;;;;-144.99;72.90;52301.34;5062646;28;19950;-69
2022/10/30 09:10:25;;;;;;;;;;;;;;;-144.99;69.85;52291.16;5061601;28;19964;-69
2022/10/30 09:12:55;;;;;;;;;;;;;;;-144.99;68.87;52301.34;5056087;28;19987;-69
2022/10/30 09:15:22;;;;;;;;;;;;;;;-144.99;67.94;52305.41;5061742;28;19945;-69
2022/10/30 09:17:48;;;;;;;;;;;;;;;-144.99;68.01;52305.41;5061717;28;19959;-70
2022/10/30 09:20:15;;;;;;;;;;;;;;;-144.99;67.94;52276.88;5056153;28;19954;-71
2022/10/30 09:22:42;;;;;;;;;;;;;;;-144.99;65.84;52293.19;5052892;28;19990;-72
2022/10/30 09:25:09;;;;;;;;;;;;;;;-144.99;64.20;52272.81;5058178;28;20027;-66
2022/10/30 09:27:37;;;;;;;;;;;;;;;-144.99;63.75;52289.13;5059795;28;20271;-65
2022/10/30 09:30:05;;;;;;;;;;;;;;;-144.99;62.86;52283.00;5056313;28;19959;-65
2022/10/30 09:32:32;;;;;;;;;;;;;;;-144.99;61.46;52264.66;5051853;28;19956;-66
2022/10/30 09:34:58;;;;;;;;;;;;;;;-144.99;59.53;52252.44;5057713;28;20092;-64
2022/10/30 09:37:25;;;;;;;;;;;;;;;-144.99;58.46;52244.28;5056357;28;20350;-64
2022/10/30 09:39:51;;;;;;;;;;;;;;;-144.99;56.47;52252.44;5054703;28;20111;-65
2022/10/30 09:42:36;;;;;;;;;;;;;;;-144.99;55.95;52291.16;5059976;28;20408;-63
2022/10/30 09:45:09;;;;;;;;;;;;;;;-144.99;56.31;52244.28;5061397;28;20017;-66
2022/10/30 09:47:42;;;;;;;;;;;;;;;-144.99;55.66;52262.63;5060509;28;20427;-66
2022/10/30 09:50:18;;;;;;;;;;;;;;;-144.99;55.02;52203.50;5058529;28;20516;-67
2022/10/30 09:52:51;;;;;;;;;;;;;;;-144.99;53.64;52207.59;5065564;28;19939;-65
2022/10/30 09:55:25;;;;;;;;;;;;;;;-144.99;51.91;52162.75;5058986;28;20359;-66
2022/10/30 09:57:57;;;;;;;;;;;;;;;-144.99;50.32;52195.34;5064043;28;19981;-65
2022/10/30 10:00:30;;;;;;;;;;;;;;;-144.99;49.91;52211.66;5068759;22;20383;-67
2022/10/30 10:03:03;;;;;;;;;;;;;;;-144.99;48.87;52191.28;5049425;28;19948;-79
2022/10/30 10:05:34;;;;;;;;;;;;;;;-144.99;48.84;52150.53;5056941;28;19955;-79
2022/10/30 10:08:03;;;;;;;;;;;;;;;-144.99;47.86;52174.97;5061822;28;19946;-79
2022/10/30 10:10:36;;;;;;;;;;;;;;;-144.99;46.83;52138.28;5064007;28;19955;-78
2022/10/30 10:13:03;;;;;;;;;;;;;;;-144.99;46.12;52154.59;5062681;28;19945;-77
2022/10/30 10:15:34;;;;;;;;;;;;;;;-144.99;45.62;52109.75;5055608;28;19947;-78
2022/10/30 10:18:03;;;;;;;;;;;;;;;-144.99;44.28;52111.78;5059282;28;19963;-78
2022/10/30 10:20:33;;;;;;;;;;;;;;;-144.99;43.58;52101.59;5062130;28;19955;-77
2022/10/30 10:23:00;;;;;;;;;;;;;;;-144.99;43.85;52138.28;5061819;28;20153;-79
2022/10/30 10:25:29;;;;;;;;;;;;;;;-144.99;43.55;52150.53;5063152;28;19939;-77
2022/10/30 10:28:06;;;;;;;;;;;;;;;-144.99;43.11;52103.66;5057565;28;19962;-77
2022/10/30 10:30:40;;;;;;;;;;;;;;;-144.99;42.69;52079.19;5060506;28;20531;-78
2022/10/30 10:33:24;;;;;;;;;;;;;;;-144.99;42.11;52073.06;5055933;28;19997;-78
2022/10/30 10:35:58;;;;;;;;;;;;;;;-144.99;41.54;52077.16;5061639;28;19964;-78
2022/10/30 10:38:34;;;;;;;;;;;;;;;-144.99;41.53;52077.16;5065307;28;20264;-77
2022/10/30 10:41:04;;;;;;;;;;;;;;;-144.99;40.76;52040.47;5067618;28;19962;-78
2022/10/30 10:43:37;;;;;;;;;;;;;;;-144.99;39.77;52016.00;5053867;28;19966;-78
2022/10/30 10:46:22;;;;;;;;;;;;;;;-144.99;39.04;52034.34;5066171;28;19931;-77
2022/10/30 10:48:55;;;;;;;;;;;;;;;-144.99;39.32;52060.84;5057902;28;19943;-77
2022/10/30 10:51:24;;;;;;;;;;;;;;;-144.99;39.12;52032.31;5066593;28;19963;-77
2022/10/30 10:53:54;;;;;;;;;;;;;;;-144.99;38.73;52040.47;5062931;28;20162;-77
2022/10/30 10:56:24;;;;;;;;;;;;;;;-144.99;38.38;52018.03;5060256;28;20401;-77
2022/10/30 10:58:53;;;;;;;;;;;;;;;-144.99;38.42;52089.38;5067610;28;19951;-76
2022/10/30 11:01:25;;;;;;;;;;;;;;;-144.99;38.82;52058.81;5086264;28;19979;-76
2022/10/30 11:03:56;;;;;;;;;;;;;;;-144.99;38.12;51995.63;5078264;28;20702;-76
2022/10/30 11:06:25;;;;;;;;;;;;;;;-144.99;38.38;51991.56;5081951;28;19947;-76
2022/10/30 11:08:52;;;;;;;;;;;;;;;-144.99;37.99;51999.69;5072029;28;19955;-76
2022/10/30 11:11:18;;;;;;;;;;;;;;;-144.99;37.54;52032.31;5086306;28;19969;-76
2022/10/30 11:13:45;;;;;;;;;;;;;;;-144.99;37.64;52052.69;5084827;28;19928;-76
2022/10/30 11:16:21;;;;;;;;;;;;;;;-144.99;38.04;52085.31;5079226;28;19928;-76
2022/10/30 11:18:52;;;;;;;;;;;;;;;-144.99;38.58;52069.00;5079742;28;20390;-76
2022/10/30 11:21:19;;;;;;;;;;;;;;;-144.99;38.46;52024.16;5074141;28;20636;-76
2022/10/30 11:23:47;;;;;;;;;;;;;;;-144.99;38.48;52073.06;5084466;28;19948;-76
2022/10/30 11:26:30;;;;;;;;;;;;;;;-144.99;38.62;52069.00;5082683;28;19964;-75
2022/10/30 11:28:59;;;;;;;;;;;;;;;-144.99;38.97;52040.47;5077522;28;19938;-76
2022/10/30 11:31:33;;;;;;;;;;;;;;;-144.99;38.45;52048.63;5079789;28;20111;-75
2022/10/30 11:34:12;;;;;;;;;;;;;;;-144.99;38.12;52007.84;5082187;28;20073;-75
2022/10/30 11:36:39;;;;;;;;;;;;;;;-144.99;37.96;52032.31;5067327;28;20336;-75
2022/10/30 11:39:09;;;;;;;;;;;;;;;-144.99;38.26;52056.78;5079614;28;19950;-76
2022/10/30 11:41:35;;;;;;;;;;;;;;;-144.99;38.44;52064.91;5078882;28;19935;-73
2022/10/30 11:44:02;;;;;;;;;;;;;;;-144.99;38.31;52121.97;5078340;28;19958;-73
2022/10/30 11:46:28;;;;;;;;;;;;;;;-144.99;38.71;52081.22;5080341;28;19946;-73
2022/10/30 11:48:55;;;;;;;;;;;;;;;-144.99;39.31;52126.06;5075379;28;19932;-74
2022/10/30 11:51:37;;;;;;;;;;;;;;;-144.99;39.88;52132.19;5080990;28;20386;-74
2022/10/30 11:54:03;;;;;;;;;;;;;;;-144.99;39.81;52109.75;5078752;28;20314;-74
2022/10/30 11:56:31;;;;;;;;;;;;;;;-144.99;39.28;52085.31;5078717;28;19931;-74
2022/10/30 11:58:58;;;;;;;;;;;;;;;-144.99;39.46;52101.59;5078597;28;20777;-74
2022/10/30 12:01:26;;;;;;;;;;;;;;;-144.99;38.89;52069.00;5079252;28;20467;-74
2022/10/30 12:03:53;;;;;;;;;;;;;;;-144.99;38.44;52073.06;5077222;28;19992;-73
2022/10/30 12:06:20;;;;;;;;;;;;;;;-144.99;38.00;51995.63;5079493;28;19941;-73
2022/10/30 12:09:01;;;;;;;;;;;;;;;-144.99;38.07;52003.78;5077375;28;19927;-73
2022/10/30 12:11:29;;;;;;;;;;;;;;;-144.99;37.90;52016.00;5077497;28;19928;-73
2022/10/30 12:13:56;;;;;;;;;;;;;;;-144.99;37.70;52022.13;5076480;28;19938;-74
2022/10/30 12:16:22;;;;;;;;;;;;;;;-144.99;37.84;51997.66;5077043;28;19946;-74
2022/10/30 12:18:53;;;;;;;;;;;;;;;-144.99;37.71;51987.47;5075014;28;19995;-73
2022/10/30 12:21:20;;;;;;;;;;;;;;;-144.99;36.85;51983.41;5077407;28;19924;-73
2022/10/30 12:23:51;;;;;;;;;;;;;;;-144.99;36.67;51979.31;5090136;28;19928;-72
2022/10/30 12:26:20;;;;;;;;;;;;;;;-144.99;36.28;51977.28;5089102;28;20308;-73